sensor_id;sensor_type;location;lat;lon;timestamp;P1;durP1;ratioP1;P2;durP2;ratioP2
1839;SDS011;920;48.944;9.148;2022-07-29T00:00:49;5.00;;;4.50;;
1839;SDS011;920;48.944;9.148;2022-07-29T00:03:16;5.33;;;4.83;;
1839;SDS011;920;48.944;9.148;2022-07-29T00:05:42;5.07;;;4.57;;
1839;SDS011;920;48.944;9.148;2022-07-29T00:08:09;5.40;;;4.90;;
1839;SDS011;920;48.944;9.148;2022-07-29T00:10:36;4.40;;;4.00;;
1839;SDS011;920;48.944;9.148;2022-07-29T00:13:05;4.93;;;4.53;;
1839;SDS011;920;48.944;9.148;2022-07-29T00:15:31;4.83;;;4.43;;
1839;SDS011;920;48.944;9.148;2022-07-29T00:17:58;5.90;;;5.30;;
1839;SDS011;920;48.944;9.148;2022-07-29T00:20:24;5.80;;;5.30;;
1839;SDS011;920;48.944;9.148;2022-07-29T00:22:51;5.17;;;4.43;;
1839;SDS011;920;48.944;9.148;2022-07-29T00:25:18;4.53;;;4.13;;
1839;SDS011;920;48.944;9.148;2022-07-29T00:27:45;5.10;;;4.47;;
1839;SDS011;920;48.944;9.148;2022-07-29T00:30:13;5.10;;;4.70;;
1839;SDS011;920;48.944;9.148;2022-07-29T00:32:40;5.10;;;4.70;;
1839;SDS011;920;48.944;9.148;2022-07-29T00:35:07;5.40;;;4.90;;
1839;SDS011;920;48.944;9.148;2022-07-29T00:37:52;6.17;;;4.80;;
1839;SDS011;920;48.944;9.148;2022-07-29T00:40:19;5.30;;;4.80;;
1839;SDS011;920;48.944;9.148;2022-07-29T00:42:46;6.10;;;5.43;;
1839;SDS011;920;48.944;9.148;2022-07-29T00:45:15;5.83;;;5.33;;
1839;SDS011;920;48.944;9.148;2022-07-29T00:47:42;5.73;;;4.90;;
1839;SDS011;920;48.944;9.148;2022-07-29T00:50:10;5.10;;;4.70;;
1839;SDS011;920;48.944;9.148;2022-07-29T00:52:38;5.03;;;4.10;;
1839;SDS011;920;48.944;9.148;2022-07-29T00:55:07;4.90;;;4.50;;
1839;SDS011;920;48.944;9.148;2022-07-29T00:57:34;5.43;;;4.43;;
1839;SDS011;920;48.944;9.148;2022-07-29T01:00:02;5.33;;;4.90;;
1839;SDS011;920;48.944;9.148;2022-07-29T01:02:31;5.20;;;4.70;;
1839;SDS011;920;48.944;9.148;2022-07-29T01:04:57;4.83;;;4.33;;
1839;SDS011;920;48.944;9.148;2022-07-29T01:07:25;5.00;;;4.60;;
1839;SDS011;920;48.944;9.148;2022-07-29T01:09:52;6.83;;;4.87;;
1839;SDS011;920;48.944;9.148;2022-07-29T01:12:21;4.80;;;4.40;;
1839;SDS011;920;48.944;9.148;2022-07-29T01:14:48;5.90;;;4.73;;
1839;SDS011;920;48.944;9.148;2022-07-29T01:17:17;5.27;;;4.77;;
1839;SDS011;920;48.944;9.148;2022-07-29T01:19:51;5.13;;;4.60;;
1839;SDS011;920;48.944;9.148;2022-07-29T01:22:31;5.07;;;4.67;;
1839;SDS011;920;48.944;9.148;2022-07-29T01:25:12;4.77;;;4.37;;
1839;SDS011;920;48.944;9.148;2022-07-29T01:27:47;5.00;;;4.60;;
1839;SDS011;920;48.944;9.148;2022-07-29T01:30:23;5.20;;;4.77;;
1839;SDS011;920;48.944;9.148;2022-07-29T01:32:52;5.20;;;4.80;;
1839;SDS011;920;48.944;9.148;2022-07-29T01:35:23;5.33;;;4.83;;
1839;SDS011;920;48.944;9.148;2022-07-29T01:37:52;4.67;;;4.30;;
1839;SDS011;920;48.944;9.148;2022-07-29T01:40:23;5.17;;;4.67;;
1839;SDS011;920;48.944;9.148;2022-07-29T01:42:52;5.30;;;4.80;;
1839;SDS011;920;48.944;9.148;2022-07-29T01:45:26;6.10;;;5.13;;
1839;SDS011;920;48.944;9.148;2022-07-29T01:47:56;6.03;;;5.37;;
1839;SDS011;920;48.944;9.148;2022-07-29T01:50:26;4.87;;;4.47;;
1839;SDS011;920;48.944;9.148;2022-07-29T01:52:56;5.23;;;4.80;;
1839;SDS011;920;48.944;9.148;2022-07-29T01:55:27;5.97;;;5.40;;
1839;SDS011;920;48.944;9.148;2022-07-29T01:57:57;6.47;;;5.07;;
1839;SDS011;920;48.944;9.148;2022-07-29T02:00:26;5.40;;;4.90;;
1839;SDS011;920;48.944;9.148;2022-07-29T02:02:55;5.00;;;4.50;;
1839;SDS011;920;48.944;9.148;2022-07-29T02:05:22;6.27;;;5.67;;
1839;SDS011;920;48.944;9.148;2022-07-29T02:07:50;6.27;;;5.50;;
1839;SDS011;920;48.944;9.148;2022-07-29T02:10:20;5.30;;;4.80;;
1839;SDS011;920;48.944;9.148;2022-07-29T02:12:48;6.00;;;5.50;;
1839;SDS011;920;48.944;9.148;2022-07-29T02:15:15;6.07;;;5.47;;
1839;SDS011;920;48.944;9.148;2022-07-29T02:17:45;6.00;;;5.40;;
1839;SDS011;920;48.944;9.148;2022-07-29T02:20:15;5.17;;;4.67;;
1839;SDS011;920;48.944;9.148;2022-07-29T02:22:42;5.53;;;5.13;;
1839;SDS011;920;48.944;9.148;2022-07-29T02:25:10;5.57;;;5.03;;
1839;SDS011;920;48.944;9.148;2022-07-29T02:27:37;5.13;;;4.70;;
1839;SDS011;920;48.944;9.148;2022-07-29T02:30:06;5.70;;;5.10;;
1839;SDS011;920;48.944;9.148;2022-07-29T02:32:35;5.67;;;5.00;;
1839;SDS011;920;48.944;9.148;2022-07-29T02:35:05;5.63;;;5.13;;
1839;SDS011;920;48.944;9.148;2022-07-29T02:37:32;5.57;;;5.07;;
1839;SDS011;920;48.944;9.148;2022-07-29T02:40:00;5.23;;;4.83;;
1839;SDS011;920;48.944;9.148;2022-07-29T02:42:27;5.27;;;4.77;;
1839;SDS011;920;48.944;9.148;2022-07-29T02:44:55;5.50;;;5.00;;
1839;SDS011;920;48.944;9.148;2022-07-29T02:47:22;5.97;;;5.47;;
1839;SDS011;920;48.944;9.148;2022-07-29T02:49:52;4.83;;;4.43;;
1839;SDS011;920;48.944;9.148;2022-07-29T02:52:24;5.70;;;5.20;;
1839;SDS011;920;48.944;9.148;2022-07-29T02:54:54;5.93;;;5.33;;
1839;SDS011;920;48.944;9.148;2022-07-29T02:57:27;5.50;;;5.00;;
1839;SDS011;920;48.944;9.148;2022-07-29T02:59:57;5.50;;;5.00;;
1839;SDS011;920;48.944;9.148;2022-07-29T03:02:25;5.70;;;5.20;;
1839;SDS011;920;48.944;9.148;2022-07-29T03:04:52;6.33;;;5.73;;
1839;SDS011;920;48.944;9.148;2022-07-29T03:07:20;6.00;;;5.50;;
1839;SDS011;920;48.944;9.148;2022-07-29T03:09:48;5.60;;;5.17;;
1839;SDS011;920;48.944;9.148;2022-07-29T03:12:15;5.73;;;5.23;;
1839;SDS011;920;48.944;9.148;2022-07-29T03:14:42;5.43;;;4.93;;
1839;SDS011;920;48.944;9.148;2022-07-29T03:17:09;5.27;;;4.87;;
1839;SDS011;920;48.944;9.148;2022-07-29T03:19:36;5.23;;;4.73;;
1839;SDS011;920;48.944;9.148;2022-07-29T03:22:03;5.67;;;4.93;;
1839;SDS011;920;48.944;9.148;2022-07-29T03:24:31;5.00;;;4.50;;
1839;SDS011;920;48.944;9.148;2022-07-29T03:27:00;6.40;;;5.23;;
1839;SDS011;920;48.944;9.148;2022-07-29T03:29:27;6.20;;;5.60;;
1839;SDS011;920;48.944;9.148;2022-07-29T03:31:54;7.40;;;6.70;;
1839;SDS011;920;48.944;9.148;2022-07-29T03:34:21;7.83;;;6.83;;
1839;SDS011;920;48.944;9.148;2022-07-29T03:36:48;6.60;;;6.00;;
1839;SDS011;920;48.944;9.148;2022-07-29T03:39:16;6.60;;;6.10;;
1839;SDS011;920;48.944;9.148;2022-07-29T03:41:44;6.50;;;6.00;;
1839;SDS011;920;48.944;9.148;2022-07-29T03:44:14;5.93;;;4.90;;
1839;SDS011;920;48.944;9.148;2022-07-29T03:46:41;5.70;;;5.20;;
1839;SDS011;920;48.944;9.148;2022-07-29T03:49:09;7.57;;;5.47;;
1839;SDS011;920;48.944;9.148;2022-07-29T03:51:37;6.03;;;5.27;;
1839;SDS011;920;48.944;9.148;2022-07-29T03:54:05;6.17;;;5.67;;
1839;SDS011;920;48.944;9.148;2022-07-29T03:56:32;6.90;;;6.20;;
1839;SDS011;920;48.944;9.148;2022-07-29T03:59:00;8.10;;;6.17;;
1839;SDS011;920;48.944;9.148;2022-07-29T04:01:29;6.33;;;5.73;;
1839;SDS011;920;48.944;9.148;2022-07-29T04:03:56;6.43;;;5.40;;
1839;SDS011;920;48.944;9.148;2022-07-29T04:06:23;6.53;;;5.90;;
1839;SDS011;920;48.944;9.148;2022-07-29T04:08:50;5.80;;;5.30;;
1839;SDS011;920;48.944;9.148;2022-07-29T04:11:17;6.07;;;5.43;;
1839;SDS011;920;48.944;9.148;2022-07-29T04:13:44;5.53;;;5.03;;
1839;SDS011;920;48.944;9.148;2022-07-29T04:16:10;5.70;;;5.13;;
1839;SDS011;920;48.944;9.148;2022-07-29T04:18:39;7.00;;;6.40;;
1839;SDS011;920;48.944;9.148;2022-07-29T04:21:05;8.00;;;6.97;;
1839;SDS011;920;48.944;9.148;2022-07-29T04:23:32;7.13;;;6.43;;
1839;SDS011;920;48.944;9.148;2022-07-29T04:25:59;7.90;;;6.60;;
1839;SDS011;920;48.944;9.148;2022-07-29T04:28:26;7.93;;;6.10;;
1839;SDS011;920;48.944;9.148;2022-07-29T04:30:53;7.80;;;6.30;;
1839;SDS011;920;48.944;9.148;2022-07-29T04:33:19;6.60;;;6.00;;
1839;SDS011;920;48.944;9.148;2022-07-29T04:35:47;10.47;;;5.70;;
1839;SDS011;920;48.944;9.148;2022-07-29T04:38:14;7.00;;;6.30;;
1839;SDS011;920;48.944;9.148;2022-07-29T04:40:41;6.60;;;6.00;;
1839;SDS011;920;48.944;9.148;2022-07-29T04:43:07;5.70;;;5.20;;
1839;SDS011;920;48.944;9.148;2022-07-29T04:45:34;6.77;;;6.17;;
1839;SDS011;920;48.944;9.148;2022-07-29T04:48:01;5.40;;;4.90;;
1839;SDS011;920;48.944;9.148;2022-07-29T04:50:28;6.57;;;6.00;;
1839;SDS011;920;48.944;9.148;2022-07-29T04:52:56;6.20;;;5.43;;
1839;SDS011;920;48.944;9.148;2022-07-29T04:55:23;6.67;;;5.90;;
1839;SDS011;920;48.944;9.148;2022-07-29T04:57:49;6.77;;;6.07;;
1839;SDS011;920;48.944;9.148;2022-07-29T05:00:16;6.73;;;6.03;;
1839;SDS011;920;48.944;9.148;2022-07-29T05:02:43;6.30;;;5.70;;
1839;SDS011;920;48.944;9.148;2022-07-29T05:05:10;6.77;;;6.07;;
1839;SDS011;920;48.944;9.148;2022-07-29T05:07:36;5.97;;;5.37;;
1839;SDS011;920;48.944;9.148;2022-07-29T05:10:05;6.33;;;5.73;;
1839;SDS011;920;48.944;9.148;2022-07-29T05:12:32;6.50;;;6.00;;
1839;SDS011;920;48.944;9.148;2022-07-29T05:14:59;7.63;;;6.53;;
1839;SDS011;920;48.944;9.148;2022-07-29T05:17:25;5.57;;;5.10;;
1839;SDS011;920;48.944;9.148;2022-07-29T05:19:52;6.00;;;5.50;;
1839;SDS011;920;48.944;9.148;2022-07-29T05:22:19;6.73;;;6.03;;
1839;SDS011;920;48.944;9.148;2022-07-29T05:24:46;6.07;;;5.67;;
1839;SDS011;920;48.944;9.148;2022-07-29T05:27:14;6.73;;;6.13;;
1839;SDS011;920;48.944;9.148;2022-07-29T05:29:41;7.53;;;6.83;;
1839;SDS011;920;48.944;9.148;2022-07-29T05:32:08;6.67;;;6.07;;
1839;SDS011;920;48.944;9.148;2022-07-29T05:34:34;8.70;;;6.40;;
1839;SDS011;920;48.944;9.148;2022-07-29T05:37:01;7.27;;;6.33;;
1839;SDS011;920;48.944;9.148;2022-07-29T05:39:28;6.23;;;5.63;;
1839;SDS011;920;48.944;9.148;2022-07-29T05:41:55;6.37;;;5.87;;
1839;SDS011;920;48.944;9.148;2022-07-29T05:44:23;6.90;;;6.30;;
1839;SDS011;920;48.944;9.148;2022-07-29T05:46:49;6.17;;;5.57;;
1839;SDS011;920;48.944;9.148;2022-07-29T05:49:16;7.13;;;6.40;;
1839;SDS011;920;48.944;9.148;2022-07-29T05:51:43;6.97;;;6.23;;
1839;SDS011;920;48.944;9.148;2022-07-29T05:54:10;6.80;;;6.20;;
1839;SDS011;920;48.944;9.148;2022-07-29T05:56:37;6.37;;;5.77;;
1839;SDS011;920;48.944;9.148;2022-07-29T05:59:03;6.73;;;6.13;;
1839;SDS011;920;48.944;9.148;2022-07-29T06:01:32;6.13;;;5.63;;
1839;SDS011;920;48.944;9.148;2022-07-29T06:03:58;7.00;;;6.40;;
1839;SDS011;920;48.944;9.148;2022-07-29T06:06:25;6.83;;;6.27;;
1839;SDS011;920;48.944;9.148;2022-07-29T06:08:52;7.90;;;6.20;;
1839;SDS011;920;48.944;9.148;2022-07-29T06:11:18;6.97;;;6.33;;
1839;SDS011;920;48.944;9.148;2022-07-29T06:13:45;6.60;;;6.00;;
1839;SDS011;920;48.944;9.148;2022-07-29T06:16:12;8.67;;;7.23;;
1839;SDS011;920;48.944;9.148;2022-07-29T06:18:40;9.33;;;6.70;;
1839;SDS011;920;48.944;9.148;2022-07-29T06:21:07;6.87;;;6.27;;
1839;SDS011;920;48.944;9.148;2022-07-29T06:23:35;6.60;;;5.97;;
1839;SDS011;920;48.944;9.148;2022-07-29T06:26:02;6.63;;;6.10;;
1839;SDS011;920;48.944;9.148;2022-07-29T06:28:30;5.93;;;5.40;;
1839;SDS011;920;48.944;9.148;2022-07-29T06:30:56;6.10;;;5.60;;
1839;SDS011;920;48.944;9.148;2022-07-29T06:33:23;5.40;;;4.97;;
1839;SDS011;920;48.944;9.148;2022-07-29T06:35:51;5.90;;;5.40;;
1839;SDS011;920;48.944;9.148;2022-07-29T06:38:18;8.00;;;5.40;;
1839;SDS011;920;48.944;9.148;2022-07-29T06:40:45;5.93;;;5.43;;
1839;SDS011;920;48.944;9.148;2022-07-29T06:43:28;5.87;;;5.37;;
1839;SDS011;920;48.944;9.148;2022-07-29T06:46:02;5.73;;;5.23;;
1839;SDS011;920;48.944;9.148;2022-07-29T06:48:30;5.33;;;4.87;;
1839;SDS011;920;48.944;9.148;2022-07-29T06:50:58;6.07;;;5.50;;
1839;SDS011;920;48.944;9.148;2022-07-29T06:53:25;5.20;;;4.80;;
1839;SDS011;920;48.944;9.148;2022-07-29T06:55:51;5.77;;;5.27;;
1839;SDS011;920;48.944;9.148;2022-07-29T06:58:18;5.03;;;4.63;;
1839;SDS011;920;48.944;9.148;2022-07-29T07:00:45;5.30;;;4.80;;
1839;SDS011;920;48.944;9.148;2022-07-29T07:03:12;6.57;;;5.17;;
1839;SDS011;920;48.944;9.148;2022-07-29T07:05:39;5.50;;;5.00;;
1839;SDS011;920;48.944;9.148;2022-07-29T07:08:07;5.87;;;5.27;;
1839;SDS011;920;48.944;9.148;2022-07-29T07:10:34;4.80;;;4.33;;
1839;SDS011;920;48.944;9.148;2022-07-29T07:13:01;5.43;;;4.93;;
1839;SDS011;920;48.944;9.148;2022-07-29T07:15:28;6.07;;;5.47;;
1839;SDS011;920;48.944;9.148;2022-07-29T07:17:55;4.80;;;4.40;;
1839;SDS011;920;48.944;9.148;2022-07-29T07:20:22;5.30;;;4.80;;
1839;SDS011;920;48.944;9.148;2022-07-29T07:22:49;4.90;;;4.50;;
1839;SDS011;920;48.944;9.148;2022-07-29T07:25:17;6.13;;;5.53;;
1839;SDS011;920;48.944;9.148;2022-07-29T07:27:44;5.80;;;5.30;;
1839;SDS011;920;48.944;9.148;2022-07-29T07:30:11;5.60;;;5.10;;
1839;SDS011;920;48.944;9.148;2022-07-29T07:32:38;4.10;;;3.80;;
1839;SDS011;920;48.944;9.148;2022-07-29T07:35:05;4.63;;;3.93;;
1839;SDS011;920;48.944;9.148;2022-07-29T07:37:33;4.50;;;4.10;;
1839;SDS011;920;48.944;9.148;2022-07-29T07:40:00;4.43;;;3.87;;
1839;SDS011;920;48.944;9.148;2022-07-29T07:42:29;4.87;;;4.47;;
1839;SDS011;920;48.944;9.148;2022-07-29T07:44:55;5.27;;;4.83;;
1839;SDS011;920;48.944;9.148;2022-07-29T07:47:22;4.60;;;4.20;;
1839;SDS011;920;48.944;9.148;2022-07-29T07:49:49;4.13;;;3.73;;
1839;SDS011;920;48.944;9.148;2022-07-29T07:52:17;4.50;;;4.20;;
1839;SDS011;920;48.944;9.148;2022-07-29T07:54:46;4.40;;;4.00;;
1839;SDS011;920;48.944;9.148;2022-07-29T07:57:13;4.70;;;4.30;;
1839;SDS011;920;48.944;9.148;2022-07-29T07:59:41;5.10;;;4.63;;
1839;SDS011;920;48.944;9.148;2022-07-29T08:02:08;5.10;;;4.60;;
1839;SDS011;920;48.944;9.148;2022-07-29T08:04:35;4.27;;;3.97;;
1839;SDS011;920;48.944;9.148;2022-07-29T08:07:02;4.97;;;4.50;;
1839;SDS011;920;48.944;9.148;2022-07-29T08:09:29;4.87;;;4.47;;
1839;SDS011;920;48.944;9.148;2022-07-29T08:11:56;4.80;;;4.40;;
1839;SDS011;920;48.944;9.148;2022-07-29T08:14:24;4.77;;;4.37;;
1839;SDS011;920;48.944;9.148;2022-07-29T08:16:52;5.23;;;4.57;;
1839;SDS011;920;48.944;9.148;2022-07-29T08:19:19;5.00;;;4.60;;
1839;SDS011;920;48.944;9.148;2022-07-29T08:21:45;3.80;;;3.40;;
1839;SDS011;920;48.944;9.148;2022-07-29T08:24:12;4.10;;;3.80;;
1839;SDS011;920;48.944;9.148;2022-07-29T08:26:57;7.83;;;4.70;;
1839;SDS011;920;48.944;9.148;2022-07-29T08:29:23;4.50;;;4.10;;
1839;SDS011;920;48.944;9.148;2022-07-29T08:31:51;4.23;;;3.93;;
1839;SDS011;920;48.944;9.148;2022-07-29T08:34:18;4.87;;;4.43;;
1839;SDS011;920;48.944;9.148;2022-07-29T08:36:44;6.93;;;4.53;;
1839;SDS011;920;48.944;9.148;2022-07-29T08:39:11;4.80;;;4.40;;
1839;SDS011;920;48.944;9.148;2022-07-29T08:41:38;4.80;;;4.40;;
1839;SDS011;920;48.944;9.148;2022-07-29T08:44:05;5.70;;;4.50;;
1839;SDS011;920;48.944;9.148;2022-07-29T08:46:31;5.27;;;4.87;;
1839;SDS011;920;48.944;9.148;2022-07-29T08:49:00;4.90;;;4.50;;
1839;SDS011;920;48.944;9.148;2022-07-29T08:51:28;4.40;;;4.00;;
1839;SDS011;920;48.944;9.148;2022-07-29T08:53:55;4.47;;;3.93;;
1839;SDS011;920;48.944;9.148;2022-07-29T08:56:22;4.97;;;4.50;;
1839;SDS011;920;48.944;9.148;2022-07-29T08:58:49;4.67;;;4.27;;
1839;SDS011;920;48.944;9.148;2022-07-29T09:01:17;5.40;;;4.90;;
1839;SDS011;920;48.944;9.148;2022-07-29T09:03:47;4.80;;;4.40;;
1839;SDS011;920;48.944;9.148;2022-07-29T09:06:17;5.50;;;5.00;;
1839;SDS011;920;48.944;9.148;2022-07-29T09:08:44;6.00;;;5.00;;
1839;SDS011;920;48.944;9.148;2022-07-29T09:11:11;5.43;;;4.80;;
1839;SDS011;920;48.944;9.148;2022-07-29T09:13:38;6.00;;;5.47;;
1839;SDS011;920;48.944;9.148;2022-07-29T09:16:05;6.07;;;5.57;;
1839;SDS011;920;48.944;9.148;2022-07-29T09:18:36;7.00;;;5.43;;
1839;SDS011;920;48.944;9.148;2022-07-29T09:21:04;5.60;;;5.10;;
1839;SDS011;920;48.944;9.148;2022-07-29T09:24:00;5.40;;;5.00;;
1839;SDS011;920;48.944;9.148;2022-07-29T09:26:33;5.20;;;4.80;;
1839;SDS011;920;48.944;9.148;2022-07-29T09:29:02;4.90;;;4.50;;
1839;SDS011;920;48.944;9.148;2022-07-29T09:31:34;5.07;;;4.57;;
1839;SDS011;920;48.944;9.148;2022-07-29T09:34:02;5.30;;;4.80;;
1839;SDS011;920;48.944;9.148;2022-07-29T09:36:29;5.20;;;4.40;;
1839;SDS011;920;48.944;9.148;2022-07-29T09:39:00;5.23;;;4.73;;
1839;SDS011;920;48.944;9.148;2022-07-29T09:41:29;4.73;;;4.33;;
1839;SDS011;920;48.944;9.148;2022-07-29T09:43:56;6.63;;;4.63;;
1839;SDS011;920;48.944;9.148;2022-07-29T09:46:24;5.30;;;4.53;;
1839;SDS011;920;48.944;9.148;2022-07-29T09:49:07;5.70;;;4.83;;
1839;SDS011;920;48.944;9.148;2022-07-29T09:51:35;5.23;;;4.53;;
1839;SDS011;920;48.944;9.148;2022-07-29T09:54:03;6.10;;;5.50;;
1839;SDS011;920;48.944;9.148;2022-07-29T09:56:47;5.73;;;5.23;;
1839;SDS011;920;48.944;9.148;2022-07-29T09:59:14;4.80;;;4.40;;
1839;SDS011;920;48.944;9.148;2022-07-29T10:01:41;5.10;;;4.60;;
1839;SDS011;920;48.944;9.148;2022-07-29T10:04:07;5.43;;;4.93;;
1839;SDS011;920;48.944;9.148;2022-07-29T10:06:34;4.87;;;4.47;;
1839;SDS011;920;48.944;9.148;2022-07-29T10:09:08;4.57;;;4.17;;
1839;SDS011;920;48.944;9.148;2022-07-29T10:11:36;5.30;;;4.80;;
1839;SDS011;920;48.944;9.148;2022-07-29T10:14:03;5.03;;;4.60;;
1839;SDS011;920;48.944;9.148;2022-07-29T10:16:30;6.43;;;5.70;;
1839;SDS011;920;48.944;9.148;2022-07-29T10:18:58;5.60;;;5.10;;
1839;SDS011;920;48.944;9.148;2022-07-29T10:21:26;5.83;;;5.33;;
1839;SDS011;920;48.944;9.148;2022-07-29T10:23:53;6.17;;;5.67;;
1839;SDS011;920;48.944;9.148;2022-07-29T10:26:21;5.47;;;4.97;;
1839;SDS011;920;48.944;9.148;2022-07-29T10:28:48;5.20;;;4.80;;
1839;SDS011;920;48.944;9.148;2022-07-29T10:31:15;4.70;;;4.30;;
1839;SDS011;920;48.944;9.148;2022-07-29T10:33:49;5.57;;;5.17;;
1839;SDS011;920;48.944;9.148;2022-07-29T10:36:23;4.90;;;4.50;;
1839;SDS011;920;48.944;9.148;2022-07-29T10:38:58;7.03;;;5.43;;
1839;SDS011;920;48.944;9.148;2022-07-29T10:41:47;5.10;;;4.70;;
1839;SDS011;920;48.944;9.148;2022-07-29T10:44:22;6.00;;;5.40;;
1839;SDS011;920;48.944;9.148;2022-07-29T10:46:50;5.87;;;5.37;;
1839;SDS011;920;48.944;9.148;2022-07-29T10:49:18;5.20;;;4.50;;
1839;SDS011;920;48.944;9.148;2022-07-29T10:54:47;4.77;;;4.37;;
1839;SDS011;920;48.944;9.148;2022-07-29T10:57:18;5.80;;;4.50;;
1839;SDS011;920;48.944;9.148;2022-07-29T10:59:51;4.87;;;4.37;;
1839;SDS011;920;48.944;9.148;2022-07-29T11:02:43;5.30;;;4.80;;
1839;SDS011;920;48.944;9.148;2022-07-29T11:05:13;9.00;;;4.30;;
1839;SDS011;920;48.944;9.148;2022-07-29T11:10:43;5.23;;;3.77;;
1839;SDS011;920;48.944;9.148;2022-07-29T11:13:11;5.90;;;3.80;;
1839;SDS011;920;48.944;9.148;2022-07-29T11:15:51;4.47;;;4.07;;
1839;SDS011;920;48.944;9.148;2022-07-29T11:18:18;4.23;;;3.83;;
1839;SDS011;920;48.944;9.148;2022-07-29T11:20:45;3.97;;;3.53;;
1839;SDS011;920;48.944;9.148;2022-07-29T11:23:18;3.93;;;3.63;;
1839;SDS011;920;48.944;9.148;2022-07-29T11:28:50;4.47;;;3.80;;
1839;SDS011;920;48.944;9.148;2022-07-29T11:31:19;4.17;;;3.87;;
1839;SDS011;920;48.944;9.148;2022-07-29T11:33:58;3.70;;;3.40;;
1839;SDS011;920;48.944;9.148;2022-07-29T11:39:43;4.00;;;3.70;;
1839;SDS011;920;48.944;9.148;2022-07-29T11:45:09;4.13;;;3.83;;
1839;SDS011;920;48.944;9.148;2022-07-29T11:47:39;4.40;;;3.50;;
1839;SDS011;920;48.944;9.148;2022-07-29T11:50:07;4.10;;;3.70;;
1839;SDS011;920;48.944;9.148;2022-07-29T11:52:36;4.40;;;4.00;;
1839;SDS011;920;48.944;9.148;2022-07-29T11:55:08;4.53;;;4.13;;
1839;SDS011;920;48.944;9.148;2022-07-29T11:57:36;3.93;;;3.60;;
1839;SDS011;920;48.944;9.148;2022-07-29T12:00:04;4.60;;;4.10;;
1839;SDS011;920;48.944;9.148;2022-07-29T12:02:40;3.90;;;3.60;;
1839;SDS011;920;48.944;9.148;2022-07-29T12:05:08;4.67;;;3.83;;
1839;SDS011;920;48.944;9.148;2022-07-29T12:07:36;4.73;;;3.90;;
1839;SDS011;920;48.944;9.148;2022-07-29T12:10:04;4.30;;;3.93;;
1839;SDS011;920;48.944;9.148;2022-07-29T12:12:31;4.30;;;3.90;;
1839;SDS011;920;48.944;9.148;2022-07-29T12:14:58;5.40;;;3.90;;
1839;SDS011;920;48.944;9.148;2022-07-29T12:17:37;4.33;;;3.93;;
1839;SDS011;920;48.944;9.148;2022-07-29T12:20:06;4.87;;;4.10;;
1839;SDS011;920;48.944;9.148;2022-07-29T12:22:33;5.17;;;4.13;;
1839;SDS011;920;48.944;9.148;2022-07-29T12:25:02;5.20;;;4.70;;
1839;SDS011;920;48.944;9.148;2022-07-29T12:27:30;5.53;;;4.73;;
1839;SDS011;920;48.944;9.148;2022-07-29T12:29:58;4.20;;;3.80;;
1839;SDS011;920;48.944;9.148;2022-07-29T12:32:30;5.10;;;4.60;;
1839;SDS011;920;48.944;9.148;2022-07-29T12:34:58;4.17;;;3.87;;
1839;SDS011;920;48.944;9.148;2022-07-29T12:37:27;4.10;;;3.80;;
1839;SDS011;920;48.944;9.148;2022-07-29T12:39:53;4.23;;;3.93;;
1839;SDS011;920;48.944;9.148;2022-07-29T12:42:20;5.97;;;4.20;;
1839;SDS011;920;48.944;9.148;2022-07-29T12:44:47;4.27;;;3.87;;
1839;SDS011;920;48.944;9.148;2022-07-29T12:47:15;3.80;;;3.50;;
1839;SDS011;920;48.944;9.148;2022-07-29T12:49:43;4.10;;;3.80;;
1839;SDS011;920;48.944;9.148;2022-07-29T12:52:30;4.07;;;3.63;;
1839;SDS011;920;48.944;9.148;2022-07-29T12:54:57;5.50;;;4.40;;
1839;SDS011;920;48.944;9.148;2022-07-29T12:57:24;4.53;;;4.13;;
1839;SDS011;920;48.944;9.148;2022-07-29T13:00:03;4.93;;;3.93;;
1839;SDS011;920;48.944;9.148;2022-07-29T13:02:34;5.23;;;4.63;;
1839;SDS011;920;48.944;9.148;2022-07-29T13:05:01;4.47;;;4.07;;
1839;SDS011;920;48.944;9.148;2022-07-29T13:07:30;4.67;;;4.27;;
1839;SDS011;920;48.944;9.148;2022-07-29T13:10:10;4.70;;;4.30;;
1839;SDS011;920;48.944;9.148;2022-07-29T13:12:39;4.83;;;4.43;;
1839;SDS011;920;48.944;9.148;2022-07-29T13:15:33;6.40;;;4.23;;
1839;SDS011;920;48.944;9.148;2022-07-29T13:18:00;5.07;;;4.10;;
1839;SDS011;920;48.944;9.148;2022-07-29T13:20:28;4.63;;;4.23;;
1839;SDS011;920;48.944;9.148;2022-07-29T13:22:57;5.90;;;4.03;;
1839;SDS011;920;48.944;9.148;2022-07-29T13:25:25;4.33;;;3.93;;
1839;SDS011;920;48.944;9.148;2022-07-29T13:27:52;4.53;;;4.13;;
1839;SDS011;920;48.944;9.148;2022-07-29T13:30:20;3.93;;;3.63;;
1839;SDS011;920;48.944;9.148;2022-07-29T13:32:48;4.70;;;3.60;;
1839;SDS011;920;48.944;9.148;2022-07-29T13:35:15;4.00;;;3.60;;
1839;SDS011;920;48.944;9.148;2022-07-29T13:37:42;3.60;;;3.30;;
1839;SDS011;920;48.944;9.148;2022-07-29T13:40:11;4.63;;;4.23;;
1839;SDS011;920;48.944;9.148;2022-07-29T13:42:38;5.00;;;3.90;;
1839;SDS011;920;48.944;9.148;2022-07-29T13:45:06;3.90;;;3.50;;
1839;SDS011;920;48.944;9.148;2022-07-29T13:47:34;4.73;;;3.83;;
1839;SDS011;920;48.944;9.148;2022-07-29T13:50:01;4.20;;;3.80;;
1839;SDS011;920;48.944;9.148;2022-07-29T13:52:28;4.87;;;4.40;;
1839;SDS011;920;48.944;9.148;2022-07-29T13:54:55;5.50;;;3.90;;
1839;SDS011;920;48.944;9.148;2022-07-29T13:57:23;4.97;;;4.17;;
1839;SDS011;920;48.944;9.148;2022-07-29T13:59:50;4.13;;;3.80;;
1839;SDS011;920;48.944;9.148;2022-07-29T14:02:17;4.00;;;3.70;;
1839;SDS011;920;48.944;9.148;2022-07-29T14:04:44;4.80;;;3.33;;
1839;SDS011;920;48.944;9.148;2022-07-29T14:07:10;4.10;;;3.70;;
1839;SDS011;920;48.944;9.148;2022-07-29T14:09:37;4.13;;;3.40;;
1839;SDS011;920;48.944;9.148;2022-07-29T14:12:04;3.80;;;3.50;;
1839;SDS011;920;48.944;9.148;2022-07-29T14:14:33;3.50;;;3.20;;
1839;SDS011;920;48.944;9.148;2022-07-29T14:17:01;3.50;;;3.20;;
1839;SDS011;920;48.944;9.148;2022-07-29T14:19:31;3.70;;;3.40;;
1839;SDS011;920;48.944;9.148;2022-07-29T14:22:01;3.63;;;3.33;;
1839;SDS011;920;48.944;9.148;2022-07-29T14:24:28;4.43;;;3.40;;
1839;SDS011;920;48.944;9.148;2022-07-29T14:26:55;4.07;;;3.50;;
1839;SDS011;920;48.944;9.148;2022-07-29T14:29:22;5.43;;;3.90;;
1839;SDS011;920;48.944;9.148;2022-07-29T14:31:50;4.90;;;3.87;;
1839;SDS011;920;48.944;9.148;2022-07-29T14:34:17;4.33;;;3.50;;
1839;SDS011;920;48.944;9.148;2022-07-29T14:36:43;3.73;;;3.30;;
1839;SDS011;920;48.944;9.148;2022-07-29T14:39:10;3.60;;;3.30;;
1839;SDS011;920;48.944;9.148;2022-07-29T14:41:37;3.73;;;3.10;;
1839;SDS011;920;48.944;9.148;2022-07-29T14:44:04;3.40;;;3.10;;
1839;SDS011;920;48.944;9.148;2022-07-29T14:46:30;3.20;;;2.90;;
1839;SDS011;920;48.944;9.148;2022-07-29T14:48:59;3.30;;;2.60;;
1839;SDS011;920;48.944;9.148;2022-07-29T14:51:26;4.00;;;3.23;;
1839;SDS011;920;48.944;9.148;2022-07-29T14:53:52;3.10;;;2.73;;
1839;SDS011;920;48.944;9.148;2022-07-29T14:56:21;2.63;;;2.43;;
1839;SDS011;920;48.944;9.148;2022-07-29T14:58:47;2.97;;;2.67;;
1839;SDS011;920;48.944;9.148;2022-07-29T15:01:14;5.93;;;2.90;;
1839;SDS011;920;48.944;9.148;2022-07-29T15:03:41;7.97;;;2.80;;
1839;SDS011;920;48.944;9.148;2022-07-29T15:06:09;3.53;;;2.40;;
1839;SDS011;920;48.944;9.148;2022-07-29T15:08:36;3.70;;;2.77;;
1839;SDS011;920;48.944;9.148;2022-07-29T15:11:02;3.13;;;2.70;;
1839;SDS011;920;48.944;9.148;2022-07-29T15:13:29;2.90;;;2.10;;
1839;SDS011;920;48.944;9.148;2022-07-29T15:15:56;3.40;;;2.47;;
1839;SDS011;920;48.944;9.148;2022-07-29T15:18:22;2.53;;;2.30;;
1839;SDS011;920;48.944;9.148;2022-07-29T15:20:49;5.67;;;2.50;;
1839;SDS011;920;48.944;9.148;2022-07-29T15:23:17;2.87;;;2.50;;
1839;SDS011;920;48.944;9.148;2022-07-29T15:25:44;5.20;;;2.50;;
1839;SDS011;920;48.944;9.148;2022-07-29T15:28:10;4.20;;;2.50;;
1839;SDS011;920;48.944;9.148;2022-07-29T15:30:37;7.70;;;2.57;;
1839;SDS011;920;48.944;9.148;2022-07-29T15:33:06;3.50;;;2.43;;
1839;SDS011;920;48.944;9.148;2022-07-29T15:35:33;3.20;;;2.37;;
1839;SDS011;920;48.944;9.148;2022-07-29T15:38:00;4.00;;;2.30;;
1839;SDS011;920;48.944;9.148;2022-07-29T15:40:28;2.47;;;2.27;;
1839;SDS011;920;48.944;9.148;2022-07-29T15:42:55;2.90;;;2.20;;
1839;SDS011;920;48.944;9.148;2022-07-29T15:45:22;2.57;;;2.30;;
1839;SDS011;920;48.944;9.148;2022-07-29T15:47:49;2.80;;;2.07;;
1839;SDS011;920;48.944;9.148;2022-07-29T15:50:16;4.40;;;2.20;;
1839;SDS011;920;48.944;9.148;2022-07-29T15:52:44;3.13;;;2.20;;